createdAt,value
2018-09-11T00:00:56.194Z,3.03
2018-09-11T00:03:25.119Z,2.87
2018-09-11T00:05:53.537Z,3.00
2018-09-11T00:08:22.025Z,2.70
2018-09-11T00:10:50.496Z,2.83
2018-09-11T00:13:19.025Z,3.53
2018-09-11T00:15:47.498Z,3.17
2018-09-11T00:18:15.912Z,2.73
2018-09-11T00:20:44.324Z,3.03
2018-09-11T00:23:12.768Z,2.90
2018-09-11T00:25:41.804Z,2.90
2018-09-11T00:28:10.597Z,2.33
2018-09-11T00:30:38.894Z,4.17
2018-09-11T00:33:07.405Z,3.23
2018-09-11T00:35:35.612Z,3.77
2018-09-11T00:38:04.005Z,3.97
2018-09-11T00:40:32.766Z,3.00
2018-09-11T00:43:00.896Z,3.57
2018-09-11T00:45:29.462Z,3.80
2018-09-11T00:47:57.791Z,2.87
2018-09-11T00:50:26.202Z,3.20
2018-09-11T00:52:54.884Z,4.03
2018-09-11T00:55:23.257Z,3.40
2018-09-11T00:57:54.515Z,3.40
2018-09-11T01:00:22.927Z,3.70
2018-09-11T01:02:51.283Z,3.63
2018-09-11T01:05:19.647Z,3.57
2018-09-11T01:07:48.015Z,4.10
2018-09-11T01:10:16.362Z,4.50
2018-09-11T01:12:44.544Z,3.80
2018-09-11T01:15:12.943Z,4.37
2018-09-11T01:17:41.530Z,3.87
2018-09-11T01:20:10.014Z,4.43
2018-09-11T01:22:38.573Z,4.27
2018-09-11T01:25:07.377Z,4.47
2018-09-11T01:27:35.726Z,4.53
2018-09-11T01:30:04.373Z,4.27
2018-09-11T01:32:32.981Z,3.90
2018-09-11T01:35:01.443Z,4.60
2018-09-11T01:37:29.882Z,3.43
2018-09-11T01:39:58.449Z,4.00
2018-09-11T01:42:27.040Z,3.90
2018-09-11T01:44:55.398Z,3.60
2018-09-11T01:47:23.785Z,3.70
2018-09-11T01:49:52.401Z,3.73
2018-09-11T01:52:20.663Z,3.83
2018-09-11T01:54:49.216Z,3.90
2018-09-11T01:57:17.674Z,4.43
2018-09-11T01:59:46.039Z,3.63
2018-09-11T02:02:14.390Z,3.97
2018-09-11T02:04:42.740Z,4.67
2018-09-11T02:07:11.095Z,3.73
2018-09-11T02:09:39.441Z,3.80
2018-09-11T02:12:07.852Z,3.37
2018-09-11T02:14:36.494Z,3.60
2018-09-11T02:17:05.133Z,3.37
2018-09-11T02:19:33.468Z,4.07
2018-09-11T02:22:01.866Z,3.93
2018-09-11T02:24:30.302Z,3.87
2018-09-11T02:26:58.701Z,3.70
2018-09-11T02:29:26.925Z,3.77
2018-09-11T02:31:55.524Z,4.33
2018-09-11T02:34:23.800Z,3.83
2018-09-11T02:36:52.049Z,3.80
2018-09-11T02:39:20.427Z,3.13
2018-09-11T02:41:48.703Z,3.93
2018-09-11T02:44:17.497Z,4.13
2018-09-11T02:46:45.804Z,3.90
2018-09-11T02:49:14.391Z,3.30
2018-09-11T02:51:43.407Z,3.90
2018-09-11T02:54:11.827Z,4.07
2018-09-11T02:56:40.075Z,3.63
2018-09-11T02:59:08.565Z,4.23
2018-09-11T03:01:37.015Z,4.00
2018-09-11T03:04:05.617Z,3.70
2018-09-11T03:06:34.015Z,3.80
2018-09-11T03:09:02.648Z,4.17
2018-09-11T03:11:30.871Z,3.83
2018-09-11T03:13:59.372Z,3.90
2018-09-11T03:16:28.413Z,3.70
2018-09-11T03:18:56.965Z,4.07
2018-09-11T03:21:25.261Z,4.40
2018-09-11T03:23:53.883Z,4.13
2018-09-11T03:26:22.869Z,4.17
2018-09-11T03:28:51.647Z,3.97
2018-09-11T03:31:20.103Z,4.27
2018-09-11T03:33:48.356Z,4.10
2018-09-11T03:36:16.622Z,4.10
2018-09-11T03:38:44.973Z,4.30
2018-09-11T03:41:13.580Z,3.73
2018-09-11T03:43:42.169Z,3.77
2018-09-11T03:46:11.574Z,4.43
2018-09-11T03:48:40.782Z,3.37
2018-09-11T03:51:09.355Z,3.07
2018-09-11T03:53:38.324Z,3.63
2018-09-11T03:56:06.925Z,3.37
2018-09-11T03:58:35.502Z,3.30
2018-09-11T04:01:04.166Z,3.57
2018-09-11T04:03:32.640Z,3.63
2018-09-11T04:06:01.172Z,4.90
2018-09-11T04:08:29.655Z,4.13
2018-09-11T04:10:58.108Z,4.20
2018-09-11T04:13:26.948Z,4.37
2018-09-11T04:15:55.353Z,4.93
2018-09-11T04:18:24.589Z,4.13
2018-09-11T04:20:52.844Z,4.30
2018-09-11T04:23:21.352Z,4.33
2018-09-11T04:25:50.216Z,4.40
2018-09-11T04:28:18.916Z,4.87
2018-09-11T04:30:47.593Z,3.90
2018-09-11T04:33:15.983Z,5.07
2018-09-11T04:35:44.899Z,4.37
2018-09-11T04:38:13.249Z,5.27
2018-09-11T04:40:42.296Z,4.30
2018-09-11T04:43:11.017Z,4.40
2018-09-11T04:45:40.020Z,5.00
2018-09-11T04:48:08.696Z,4.90
2018-09-11T04:50:37.438Z,4.50
2018-09-11T04:53:06.830Z,4.40
2018-09-11T04:55:35.261Z,4.23
2018-09-11T04:58:03.736Z,4.53
2018-09-11T05:00:32.024Z,4.27
2018-09-11T05:03:00.614Z,4.77
2018-09-11T05:05:28.962Z,4.93
2018-09-11T05:07:57.448Z,4.47
2018-09-11T05:10:25.862Z,4.40
2018-09-11T05:12:54.276Z,4.97
2018-09-11T05:15:22.818Z,5.03
2018-09-11T05:17:51.721Z,5.10
2018-09-11T05:20:20.503Z,4.67
2018-09-11T05:22:48.728Z,4.80
2018-09-11T05:25:17.074Z,4.87
2018-09-11T05:27:51.415Z,4.93
2018-09-11T05:30:28.788Z,4.20
2018-09-11T05:32:59.162Z,4.20
2018-09-11T05:35:27.956Z,4.83
2018-09-11T05:37:57.093Z,4.90
2018-09-11T05:40:25.888Z,4.70
2018-09-11T05:42:55.125Z,5.10
2018-09-11T05:45:24.153Z,5.43
2018-09-11T05:47:54.554Z,5.10
2018-09-11T05:50:23.099Z,4.90
2018-09-11T05:52:51.929Z,5.43
2018-09-11T05:55:20.898Z,4.80
2018-09-11T05:57:49.361Z,4.90
2018-09-11T06:00:17.777Z,4.53
2018-09-11T06:02:48.170Z,4.47
2018-09-11T06:05:19.846Z,4.90
2018-09-11T06:07:50.026Z,4.13
2018-09-11T06:10:18.724Z,4.53
2018-09-11T06:12:47.760Z,4.17
2018-09-11T06:15:16.553Z,5.23
2018-09-11T06:17:45.373Z,5.10
2018-09-11T06:20:14.025Z,5.13
2018-09-11T06:22:42.503Z,4.90
2018-09-11T06:25:11.241Z,5.17
2018-09-11T06:27:39.825Z,4.63
2018-09-11T06:30:08.268Z,5.80
2018-09-11T06:32:36.413Z,4.60
2018-09-11T06:35:04.711Z,4.67
2018-09-11T06:37:33.059Z,4.43
2018-09-11T06:40:01.655Z,4.53
2018-09-11T06:42:29.947Z,4.37
2018-09-11T06:44:58.705Z,4.97
2018-09-11T06:47:28.164Z,4.07
2018-09-11T06:49:56.878Z,4.20
2018-09-11T06:52:25.182Z,3.90
2018-09-11T06:54:53.512Z,5.07
2018-09-11T06:57:22.297Z,4.63
2018-09-11T06:59:50.770Z,4.67
2018-09-11T07:02:19.225Z,4.60
2018-09-11T07:04:47.940Z,4.13
2018-09-11T07:07:16.988Z,4.20
2018-09-11T07:09:45.360Z,4.10
2018-09-11T07:12:13.720Z,3.33
2018-09-11T07:14:42.272Z,4.17
2018-09-11T07:17:10.688Z,3.77
2018-09-11T07:19:39.276Z,3.80
2018-09-11T07:22:07.976Z,4.93
2018-09-11T07:24:36.388Z,4.03
2018-09-11T07:27:04.724Z,3.70
2018-09-11T07:29:33.383Z,4.27
2018-09-11T07:32:01.851Z,3.60
2018-09-11T07:34:30.467Z,4.70
2018-09-11T07:37:00.001Z,4.07
2018-09-11T07:39:28.337Z,3.60
2018-09-11T07:41:57.596Z,4.03
2018-09-11T07:44:26.345Z,3.70
2018-09-11T07:46:55.165Z,3.47
2018-09-11T07:49:23.768Z,3.70
2018-09-11T07:51:52.094Z,3.60
2018-09-11T07:54:20.360Z,4.00
2018-09-11T07:56:48.993Z,3.63
2018-09-11T07:59:17.579Z,3.83
2018-09-11T08:01:51.488Z,4.67
2018-09-11T08:04:20.307Z,3.73
2018-09-11T08:06:48.700Z,3.40
2018-09-11T08:09:17.163Z,3.03
2018-09-11T08:11:45.568Z,2.87
2018-09-11T08:14:14.285Z,3.00
2018-09-11T08:16:43.146Z,3.07
2018-09-11T08:19:11.735Z,3.30
2018-09-11T08:21:40.443Z,3.47
2018-09-11T08:24:08.612Z,3.10
2018-09-11T08:26:50.886Z,2.93
2018-09-11T08:29:19.715Z,3.50
2018-09-11T08:31:48.087Z,3.33
2018-09-11T08:34:16.641Z,3.33
2018-09-11T08:36:44.987Z,3.00
2018-09-11T08:39:13.642Z,3.10
2018-09-11T08:41:42.249Z,2.87
2018-09-11T08:44:10.683Z,3.57
2018-09-11T08:46:39.227Z,2.97
2018-09-11T08:49:07.524Z,3.07
2018-09-11T08:51:35.818Z,3.03
2018-09-11T08:54:04.026Z,2.93
2018-09-11T08:56:32.503Z,3.40
2018-09-11T08:59:01.109Z,3.00
2018-09-11T09:01:31.086Z,3.07
2018-09-11T09:04:00.022Z,3.13
2018-09-11T09:06:28.857Z,3.70
2018-09-11T09:08:57.343Z,3.40
2018-09-11T09:11:26.241Z,3.37
2018-09-11T09:13:54.548Z,3.00
2018-09-11T09:16:22.856Z,2.57
2018-09-11T09:18:51.347Z,3.17
2018-09-11T09:21:19.761Z,3.67
2018-09-11T09:23:48.107Z,2.97
2018-09-11T09:26:16.687Z,3.20
2018-09-11T09:28:45.371Z,3.03
2018-09-11T09:31:13.913Z,3.10
2018-09-11T09:33:42.564Z,3.00
2018-09-11T09:36:12.813Z,2.80
2018-09-11T09:38:41.916Z,2.90
2018-09-11T09:41:10.575Z,2.83
2018-09-11T09:43:40.233Z,2.50
2018-09-11T09:46:08.718Z,2.97
2018-09-11T09:48:37.271Z,3.03
2018-09-11T09:51:05.631Z,3.00
2018-09-11T09:53:34.884Z,3.20
2018-09-11T09:56:03.465Z,2.97
2018-09-11T09:58:31.952Z,3.80
2018-09-11T10:01:06.487Z,2.60
2018-09-11T10:03:35.291Z,3.20
2018-09-11T10:06:03.962Z,2.73
2018-09-11T10:08:32.522Z,2.67
2018-09-11T10:11:01.824Z,2.50
2018-09-11T10:13:31.131Z,2.73
2018-09-11T10:15:59.532Z,3.00
2018-09-11T10:18:27.901Z,3.07
2018-09-11T10:20:56.411Z,3.03
2018-09-11T10:23:25.041Z,3.50
2018-09-11T10:25:53.341Z,2.80
2018-09-11T10:28:21.633Z,2.83
2018-09-11T10:30:50.101Z,2.70
2018-09-11T10:33:18.367Z,2.63
2018-09-11T10:35:46.565Z,2.10
2018-09-11T10:38:15.170Z,2.17
2018-09-11T10:40:43.977Z,2.80
2018-09-11T10:43:12.350Z,2.33
2018-09-11T10:45:41.236Z,2.10
2018-09-11T10:48:09.614Z,2.33
2018-09-11T10:50:37.936Z,2.50
2018-09-11T10:53:08.159Z,2.23
2018-09-11T10:55:37.932Z,2.00
2018-09-11T10:58:06.836Z,1.97
2018-09-11T11:00:35.177Z,2.20
2018-09-11T11:03:03.815Z,2.10
2018-09-11T11:05:32.044Z,2.23
2018-09-11T11:08:00.291Z,2.60
2018-09-11T11:10:28.874Z,2.20
2018-09-11T11:12:57.405Z,2.30
2018-09-11T11:15:25.833Z,2.43
2018-09-11T11:17:54.299Z,2.40
2018-09-11T11:20:23.152Z,2.03
2018-09-11T11:22:51.912Z,2.53
2018-09-11T11:25:20.251Z,2.43
2018-09-11T11:27:48.676Z,2.30
2018-09-11T11:30:17.134Z,2.10
2018-09-11T11:32:45.616Z,2.20
2018-09-11T11:35:14.209Z,2.30
2018-09-11T11:37:42.643Z,2.70
2018-09-11T11:40:11.520Z,2.47
2018-09-11T11:42:39.974Z,3.00
2018-09-11T11:45:08.722Z,3.03
2018-09-11T11:47:37.312Z,2.40
2018-09-11T11:50:06.254Z,2.50
2018-09-11T11:52:35.269Z,2.40
2018-09-11T11:55:03.540Z,2.40
2018-09-11T11:57:31.977Z,2.57
2018-09-11T12:00:00.502Z,2.83
2018-09-11T12:02:28.703Z,2.03
2018-09-11T12:04:57.528Z,2.67
2018-09-11T12:07:25.874Z,2.40
2018-09-11T12:09:54.377Z,2.53
2018-09-11T12:12:22.866Z,2.50
2018-09-11T12:14:52.442Z,2.80
2018-09-11T12:17:20.930Z,2.40
2018-09-11T12:19:49.529Z,2.70
2018-09-11T12:22:17.734Z,2.43
2018-09-11T12:24:46.103Z,3.00
2018-09-11T12:27:15.773Z,2.40
2018-09-11T12:29:44.074Z,2.67
2018-09-11T12:32:12.307Z,3.27
2018-09-11T12:34:41.487Z,2.27
2018-09-11T12:37:11.564Z,2.43
2018-09-11T12:39:39.978Z,2.43
2018-09-11T12:42:08.554Z,2.17
2018-09-11T12:44:36.904Z,2.10
2018-09-11T12:47:06.148Z,2.50
2018-09-11T12:49:34.439Z,2.83
2018-09-11T12:52:02.855Z,2.20
2018-09-11T12:54:33.616Z,2.47
2018-09-11T12:57:02.047Z,2.63
2018-09-11T12:59:32.252Z,2.40
2018-09-11T13:02:02.752Z,2.60
2018-09-11T13:04:32.325Z,2.67
2018-09-11T13:07:01.427Z,2.30
2018-09-11T13:09:30.329Z,2.57
2018-09-11T13:11:59.595Z,3.63
2018-09-11T13:14:28.244Z,2.37
2018-09-11T13:16:57.309Z,2.70
2018-09-11T13:19:25.926Z,2.60
2018-09-11T13:21:54.503Z,2.87
2018-09-11T13:31:20.475Z,3.03
2018-09-11T13:33:49.898Z,3.03
2018-09-11T13:36:18.893Z,3.57
2018-09-11T13:38:48.188Z,3.50
2018-09-11T13:41:18.044Z,3.60
2018-09-11T13:43:47.175Z,3.17
2018-09-11T13:46:16.342Z,3.27
2018-09-11T13:48:45.654Z,3.63
2018-09-11T13:51:14.886Z,3.60
2018-09-11T13:53:44.134Z,3.37
2018-09-11T13:56:12.925Z,3.30
2018-09-11T13:58:42.094Z,3.80
2018-09-11T14:01:11.418Z,3.70
2018-09-11T14:03:40.153Z,4.10
2018-09-11T14:06:09.299Z,4.00
2018-09-11T14:08:38.304Z,3.60
2018-09-11T14:11:08.002Z,3.90
2018-09-11T14:13:37.793Z,4.20
2018-09-11T14:16:07.280Z,4.67
2018-09-11T14:18:36.296Z,4.30
2018-09-11T14:21:05.819Z,4.10
2018-09-11T14:23:34.724Z,3.77
2018-09-11T14:26:04.587Z,3.83
2018-09-11T14:28:33.669Z,3.63
2018-09-11T14:31:03.529Z,3.73
2018-09-11T14:33:32.907Z,3.63
2018-09-11T14:36:02.100Z,3.67
2018-09-11T14:38:31.531Z,4.00
2018-09-11T14:41:00.713Z,3.73
2018-09-11T14:43:30.023Z,4.03
2018-09-11T14:45:59.541Z,3.33
2018-09-11T14:48:28.746Z,3.27
2018-09-11T14:50:57.754Z,3.63
2018-09-11T14:53:26.975Z,4.37
2018-09-11T14:55:56.916Z,3.83
2018-09-11T14:58:26.830Z,3.80
2018-09-11T15:00:56.255Z,3.70
2018-09-11T15:03:25.764Z,4.03
2018-09-11T15:05:55.539Z,3.93
2018-09-11T15:08:24.634Z,4.00
2018-09-11T15:10:53.326Z,4.50
2018-09-11T15:13:22.923Z,4.67
2018-09-11T15:15:51.896Z,4.80
2018-09-11T15:18:20.993Z,4.47
2018-09-11T15:20:50.022Z,4.30
2018-09-11T15:23:19.592Z,4.50
2018-09-11T15:25:49.129Z,4.37
2018-09-11T15:28:18.633Z,4.40
2018-09-11T15:30:47.940Z,4.60
2018-09-11T15:33:17.346Z,4.77
2018-09-11T15:35:46.569Z,5.63
2018-09-11T15:38:15.963Z,4.53
2018-09-11T15:40:46.160Z,4.50
2018-09-11T15:43:16.161Z,5.30
2018-09-11T15:45:46.355Z,4.13
2018-09-11T15:48:16.512Z,5.07
2018-09-11T15:53:19.805Z,4.33
2018-09-11T15:55:49.057Z,4.23
2018-09-11T15:58:18.633Z,5.77
2018-09-11T16:00:48.073Z,5.37
2018-09-11T16:03:18.179Z,4.93
2018-09-11T16:05:47.679Z,5.30
2018-09-11T16:08:16.794Z,4.97
2018-09-11T16:10:46.005Z,5.33
2018-09-11T16:13:15.095Z,4.73
2018-09-11T16:15:44.353Z,5.43
2018-09-11T16:18:13.467Z,5.53
2018-09-11T16:20:42.857Z,5.33
2018-09-11T16:23:12.021Z,5.70
2018-09-11T16:25:41.332Z,5.40
2018-09-11T16:28:10.226Z,5.13
2018-09-11T16:30:39.350Z,6.40
2018-09-11T16:33:08.506Z,5.70
2018-09-11T16:35:37.578Z,6.23
2018-09-11T16:38:08.360Z,5.40
2018-09-11T16:40:37.282Z,4.90
2018-09-11T16:43:06.907Z,5.93
2018-09-11T16:45:35.844Z,5.53
2018-09-11T16:48:05.234Z,5.00
2018-09-11T16:50:34.206Z,5.40
2018-09-11T16:53:03.198Z,5.10
2018-09-11T16:55:32.739Z,5.80
2018-09-11T16:58:02.741Z,5.67
2018-09-11T17:00:32.308Z,4.90
2018-09-11T17:03:01.415Z,5.50
2018-09-11T17:05:30.574Z,4.90
2018-09-11T17:08:00.427Z,4.70
2018-09-11T17:10:29.318Z,5.13
2018-09-11T17:12:59.356Z,5.00
2018-09-11T17:15:28.742Z,4.30
2018-09-11T17:17:58.475Z,4.63
2018-09-11T17:20:28.391Z,4.53
2018-09-11T17:22:58.591Z,4.60
2018-09-11T17:25:27.590Z,4.70
2018-09-11T17:27:57.502Z,4.80
2018-09-11T17:30:26.751Z,4.70
2018-09-11T17:32:56.163Z,4.37
2018-09-11T17:35:25.344Z,5.03
2018-09-11T17:37:55.639Z,5.37
2018-09-11T17:40:26.920Z,4.10
2018-09-11T17:42:56.835Z,4.90
2018-09-11T17:45:27.231Z,4.77
2018-09-11T17:47:56.907Z,4.57
2018-09-11T17:50:26.277Z,4.67
2018-09-11T17:52:55.451Z,4.97
2018-09-11T17:55:25.537Z,5.17
2018-09-11T17:57:54.803Z,5.90
2018-09-11T18:00:24.776Z,5.60
2018-09-11T18:02:53.681Z,6.30
2018-09-11T18:05:23.420Z,5.33
2018-09-11T18:07:52.684Z,5.40
2018-09-11T18:10:21.709Z,5.63
2018-09-11T18:12:52.683Z,6.00
2018-09-11T18:15:22.632Z,6.13
2018-09-11T18:17:51.871Z,6.13
2018-09-11T18:20:21.547Z,7.07
2018-09-11T18:22:50.641Z,6.40
2018-09-11T18:25:19.723Z,6.23
2018-09-11T18:28:06.934Z,6.23
2018-09-11T18:30:39.592Z,7.77
2018-09-11T18:33:12.687Z,7.33
2018-09-11T18:35:44.366Z,7.67
2018-09-11T18:38:13.773Z,7.50
2018-09-11T18:40:44.013Z,9.23
2018-09-11T18:43:13.646Z,8.23
2018-09-11T18:45:44.053Z,9.90
2018-09-11T18:48:14.538Z,9.50
2018-09-11T18:50:44.383Z,8.70
2018-09-11T18:53:13.660Z,7.87
2018-09-11T18:55:43.144Z,8.97
2018-09-11T18:58:23.452Z,8.30
2018-09-11T19:01:06.316Z,7.07
2018-09-11T19:03:35.939Z,7.00
2018-09-11T19:06:05.055Z,7.57
2018-09-11T19:08:34.068Z,7.43
2018-09-11T19:11:05.558Z,6.17
2018-09-11T19:13:57.805Z,6.03
2018-09-11T19:16:27.332Z,5.23
2018-09-11T19:19:03.641Z,3.50
2018-09-11T19:21:33.065Z,4.10
2018-09-11T19:24:26.361Z,4.90
2018-09-11T19:26:56.422Z,5.33
2018-09-11T19:29:38.651Z,5.63
2018-09-11T19:32:18.322Z,5.70
2018-09-11T19:34:49.365Z,6.67
2018-09-11T19:37:19.147Z,7.33
2018-09-11T19:39:48.186Z,8.43
2018-09-11T19:42:23.386Z,8.73
2018-09-11T19:44:54.334Z,9.33
2018-09-11T19:47:23.605Z,9.30
2018-09-11T19:49:54.925Z,9.87
2018-09-11T19:52:29.879Z,10.00
2018-09-11T19:55:06.844Z,10.00
2018-09-11T19:57:36.433Z,10.07
2018-09-11T20:00:06.105Z,10.60
2018-09-11T20:02:34.963Z,10.73
2018-09-11T20:05:21.947Z,10.47
2018-09-11T20:07:52.176Z,9.47
2018-09-11T20:10:21.431Z,10.13
2018-09-11T20:12:50.774Z,9.50
2018-09-11T20:15:20.449Z,10.10
2018-09-11T20:17:56.492Z,9.53
2018-09-11T20:20:26.156Z,10.13
2018-09-11T20:22:54.942Z,9.97
2018-09-11T20:25:24.175Z,11.30
2018-09-11T20:27:53.078Z,10.73
2018-09-11T20:30:22.254Z,10.73
2018-09-11T20:32:56.305Z,11.83
2018-09-11T20:35:25.359Z,10.53
2018-09-11T20:38:07.135Z,9.77
2018-09-11T20:40:36.913Z,10.03
2018-09-11T20:43:11.343Z,9.07
2018-09-11T20:45:41.724Z,9.20
2018-09-11T20:48:14.719Z,8.80
2018-09-11T20:50:45.695Z,8.67
2018-09-11T20:53:18.353Z,9.00
2018-09-11T20:55:47.731Z,9.13
2018-09-11T20:58:16.744Z,8.97
2018-09-11T21:00:46.226Z,9.23
2018-09-11T21:03:15.370Z,8.67
2018-09-11T21:05:44.295Z,9.70
2018-09-11T21:08:13.264Z,9.43
2018-09-11T21:10:42.432Z,9.47
2018-09-11T21:13:11.450Z,10.07
2018-09-11T21:15:40.451Z,8.80
2018-09-11T21:18:09.606Z,9.07
2018-09-11T21:20:42.332Z,10.33
2018-09-11T21:23:14.762Z,8.53
2018-09-11T21:25:44.944Z,8.53
2018-09-11T21:28:13.748Z,8.03
2018-09-11T21:30:42.745Z,7.17
2018-09-11T21:33:11.722Z,6.27
2018-09-11T21:35:41.337Z,6.23
2018-09-11T21:38:10.496Z,5.90
2018-09-11T21:40:39.372Z,5.67
2018-09-11T21:43:08.133Z,6.40
2018-09-11T21:45:37.485Z,6.43
2018-09-11T21:48:17.608Z,5.90
2018-09-11T21:50:47.303Z,7.20
2018-09-11T21:53:21.553Z,6.90
2018-09-11T21:55:51.464Z,5.70
2018-09-11T21:58:27.493Z,6.67
2018-09-11T22:01:07.507Z,5.53
2018-09-11T22:03:37.021Z,5.93
2018-09-11T22:08:34.718Z,6.40
2018-09-11T22:11:03.292Z,5.30
2018-09-11T22:13:34.258Z,5.50
2018-09-11T22:16:03.493Z,5.47
2018-09-11T22:18:32.401Z,6.10
2018-09-11T22:21:00.811Z,5.10
2018-09-11T22:23:30.547Z,6.63
2018-09-11T22:25:59.328Z,7.03
2018-09-11T22:28:28.089Z,5.90
2018-09-11T22:30:57.810Z,6.93
2018-09-11T22:33:26.771Z,6.30
2018-09-11T22:35:56.452Z,6.07
2018-09-11T22:38:25.468Z,6.73
2018-09-11T22:40:54.254Z,5.93
2018-09-11T22:43:27.326Z,7.53
2018-09-11T22:45:58.457Z,7.23
2018-09-11T22:48:28.440Z,7.70
2018-09-11T22:50:57.416Z,8.17
2018-09-11T22:53:26.094Z,8.77
2018-09-11T22:55:55.024Z,8.13
2018-09-11T22:58:24.243Z,7.00
2018-09-11T23:00:52.932Z,7.07
2018-09-11T23:03:21.508Z,6.63
2018-09-11T23:05:50.160Z,7.73
2018-09-11T23:08:18.845Z,7.40
2018-09-11T23:10:47.558Z,7.03
2018-09-11T23:13:16.365Z,6.97
2018-09-11T23:15:45.384Z,7.43
2018-09-11T23:18:14.129Z,7.40
2018-09-11T23:20:43.839Z,7.50
2018-09-11T23:23:20.534Z,7.30
2018-09-11T23:25:49.198Z,7.13
2018-09-11T23:28:17.863Z,6.40
2018-09-11T23:30:46.319Z,6.83
2018-09-11T23:33:15.421Z,7.17
2018-09-11T23:35:44.157Z,6.93
2018-09-11T23:38:12.734Z,6.40
2018-09-11T23:40:41.708Z,6.93
2018-09-11T23:43:10.824Z,6.87
2018-09-11T23:45:39.513Z,6.87
2018-09-11T23:48:08.100Z,6.77
2018-09-11T23:50:36.726Z,6.40
2018-09-11T23:53:05.875Z,8.13
2018-09-11T23:55:34.971Z,7.40
2018-09-11T23:58:04.200Z,7.20
